sensor_id;sensor_type;location;lat;lon;timestamp;P1;durP1;ratioP1;P2;durP2;ratioP2
7807;SDS011;3949;49.254;8.894;2023-09-18T00:01:50;3.33;;;3.10;;
7807;SDS011;3949;49.254;8.894;2023-09-18T00:04:16;4.03;;;3.30;;
7807;SDS011;3949;49.254;8.894;2023-09-18T00:06:42;3.50;;;3.10;;
7807;SDS011;3949;49.254;8.894;2023-09-18T00:09:08;8.07;;;5.97;;
7807;SDS011;3949;49.254;8.894;2023-09-18T00:11:36;5.07;;;4.30;;
7807;SDS011;3949;49.254;8.894;2023-09-18T00:14:05;3.97;;;3.23;;
7807;SDS011;3949;49.254;8.894;2023-09-18T00:16:31;4.73;;;3.00;;
7807;SDS011;3949;49.254;8.894;2023-09-18T00:18:57;3.50;;;3.20;;
7807;SDS011;3949;49.254;8.894;2023-09-18T00:21:23;3.67;;;3.37;;
7807;SDS011;3949;49.254;8.894;2023-09-18T00:23:50;4.20;;;3.80;;
7807;SDS011;3949;49.254;8.894;2023-09-18T00:26:16;6.57;;;3.70;;
7807;SDS011;3949;49.254;8.894;2023-09-18T00:28:42;3.00;;;2.80;;
7807;SDS011;3949;49.254;8.894;2023-09-18T00:31:08;3.40;;;3.10;;
7807;SDS011;3949;49.254;8.894;2023-09-18T00:33:34;3.57;;;3.13;;
7807;SDS011;3949;49.254;8.894;2023-09-18T00:36:00;5.60;;;3.17;;
7807;SDS011;3949;49.254;8.894;2023-09-18T00:38:27;3.30;;;3.00;;
7807;SDS011;3949;49.254;8.894;2023-09-18T00:40:53;5.27;;;3.10;;
7807;SDS011;3949;49.254;8.894;2023-09-18T00:43:19;3.23;;;3.00;;
7807;SDS011;3949;49.254;8.894;2023-09-18T00:45:46;3.27;;;2.70;;
7807;SDS011;3949;49.254;8.894;2023-09-18T00:48:16;4.70;;;3.17;;
7807;SDS011;3949;49.254;8.894;2023-09-18T00:50:46;2.80;;;2.60;;
7807;SDS011;3949;49.254;8.894;2023-09-18T00:53:20;3.40;;;3.10;;
7807;SDS011;3949;49.254;8.894;2023-09-18T00:55:46;4.17;;;3.20;;
7807;SDS011;3949;49.254;8.894;2023-09-18T00:58:12;4.60;;;3.70;;
7807;SDS011;3949;49.254;8.894;2023-09-18T01:00:39;3.50;;;3.20;;
7807;SDS011;3949;49.254;8.894;2023-09-18T01:03:05;3.10;;;2.80;;
7807;SDS011;3949;49.254;8.894;2023-09-18T01:05:32;3.17;;;2.87;;
7807;SDS011;3949;49.254;8.894;2023-09-18T01:07:58;3.53;;;3.30;;
7807;SDS011;3949;49.254;8.894;2023-09-18T01:10:24;6.00;;;3.07;;
7807;SDS011;3949;49.254;8.894;2023-09-18T01:12:59;4.13;;;3.27;;
7807;SDS011;3949;49.254;8.894;2023-09-18T01:15:30;3.13;;;2.63;;
7807;SDS011;3949;49.254;8.894;2023-09-18T01:17:58;3.00;;;2.80;;
7807;SDS011;3949;49.254;8.894;2023-09-18T01:20:25;3.13;;;2.87;;
7807;SDS011;3949;49.254;8.894;2023-09-18T01:22:52;3.57;;;2.97;;
7807;SDS011;3949;49.254;8.894;2023-09-18T01:25:18;6.13;;;3.03;;
7807;SDS011;3949;49.254;8.894;2023-09-18T01:27:44;3.40;;;3.10;;
7807;SDS011;3949;49.254;8.894;2023-09-18T01:30:10;3.30;;;3.00;;
7807;SDS011;3949;49.254;8.894;2023-09-18T01:32:38;3.80;;;2.93;;
7807;SDS011;3949;49.254;8.894;2023-09-18T01:35:05;3.30;;;3.00;;
7807;SDS011;3949;49.254;8.894;2023-09-18T01:37:32;3.40;;;3.10;;
7807;SDS011;3949;49.254;8.894;2023-09-18T01:40:01;2.97;;;2.67;;
7807;SDS011;3949;49.254;8.894;2023-09-18T01:42:31;3.40;;;3.10;;
7807;SDS011;3949;49.254;8.894;2023-09-18T01:44:57;3.30;;;3.00;;
7807;SDS011;3949;49.254;8.894;2023-09-18T01:47:23;4.33;;;2.97;;
7807;SDS011;3949;49.254;8.894;2023-09-18T01:49:50;3.20;;;2.90;;
7807;SDS011;3949;49.254;8.894;2023-09-18T01:52:16;3.23;;;2.93;;
7807;SDS011;3949;49.254;8.894;2023-09-18T01:54:41;3.17;;;2.97;;
7807;SDS011;3949;49.254;8.894;2023-09-18T01:57:07;5.30;;;2.90;;
7807;SDS011;3949;49.254;8.894;2023-09-18T01:59:34;3.43;;;2.93;;
7807;SDS011;3949;49.254;8.894;2023-09-18T02:02:00;2.87;;;2.67;;
7807;SDS011;3949;49.254;8.894;2023-09-18T02:04:28;3.30;;;3.07;;
7807;SDS011;3949;49.254;8.894;2023-09-18T02:06:55;3.53;;;3.03;;
7807;SDS011;3949;49.254;8.894;2023-09-18T02:09:22;3.43;;;3.13;;
7807;SDS011;3949;49.254;8.894;2023-09-18T02:11:48;5.00;;;3.27;;
7807;SDS011;3949;49.254;8.894;2023-09-18T02:14:14;3.70;;;3.40;;
7807;SDS011;3949;49.254;8.894;2023-09-18T02:16:40;5.63;;;3.80;;
7807;SDS011;3949;49.254;8.894;2023-09-18T02:19:10;5.03;;;3.23;;
7807;SDS011;3949;49.254;8.894;2023-09-18T02:21:36;3.87;;;2.97;;
7807;SDS011;3949;49.254;8.894;2023-09-18T02:24:03;3.50;;;3.20;;
7807;SDS011;3949;49.254;8.894;2023-09-18T02:26:29;3.63;;;3.33;;
7807;SDS011;3949;49.254;8.894;2023-09-18T02:28:57;3.87;;;3.27;;
7807;SDS011;3949;49.254;8.894;2023-09-18T02:31:23;4.10;;;3.70;;
7807;SDS011;3949;49.254;8.894;2023-09-18T02:33:49;5.00;;;4.00;;
7807;SDS011;3949;49.254;8.894;2023-09-18T02:36:15;5.27;;;3.73;;
7807;SDS011;3949;49.254;8.894;2023-09-18T02:38:41;3.63;;;3.33;;
7807;SDS011;3949;49.254;8.894;2023-09-18T02:41:08;4.23;;;3.77;;
7807;SDS011;3949;49.254;8.894;2023-09-18T02:43:34;4.33;;;3.93;;
7807;SDS011;3949;49.254;8.894;2023-09-18T02:46:00;4.23;;;3.83;;
7807;SDS011;3949;49.254;8.894;2023-09-18T02:48:26;4.60;;;4.07;;
7807;SDS011;3949;49.254;8.894;2023-09-18T02:50:52;5.40;;;4.03;;
7807;SDS011;3949;49.254;8.894;2023-09-18T02:53:19;5.77;;;3.90;;
7807;SDS011;3949;49.254;8.894;2023-09-18T02:55:49;5.20;;;4.80;;
7807;SDS011;3949;49.254;8.894;2023-09-18T02:58:15;5.93;;;4.63;;
7807;SDS011;3949;49.254;8.894;2023-09-18T03:00:42;5.30;;;4.43;;
7807;SDS011;3949;49.254;8.894;2023-09-18T03:03:08;5.67;;;4.40;;
7807;SDS011;3949;49.254;8.894;2023-09-18T03:05:34;5.20;;;4.47;;
7807;SDS011;3949;49.254;8.894;2023-09-18T03:08:00;5.53;;;4.07;;
7807;SDS011;3949;49.254;8.894;2023-09-18T03:10:26;4.73;;;4.33;;
7807;SDS011;3949;49.254;8.894;2023-09-18T03:12:52;5.30;;;4.37;;
7807;SDS011;3949;49.254;8.894;2023-09-18T03:15:18;5.20;;;4.47;;
7807;SDS011;3949;49.254;8.894;2023-09-18T03:17:44;5.20;;;4.53;;
7807;SDS011;3949;49.254;8.894;2023-09-18T03:20:10;4.80;;;4.40;;
7807;SDS011;3949;49.254;8.894;2023-09-18T03:22:36;5.30;;;4.60;;
7807;SDS011;3949;49.254;8.894;2023-09-18T03:25:02;4.60;;;4.20;;
7807;SDS011;3949;49.254;8.894;2023-09-18T03:27:28;5.50;;;4.60;;
7807;SDS011;3949;49.254;8.894;2023-09-18T03:29:56;5.00;;;4.60;;
7807;SDS011;3949;49.254;8.894;2023-09-18T03:32:22;4.83;;;4.43;;
7807;SDS011;3949;49.254;8.894;2023-09-18T03:34:51;5.23;;;4.73;;
7807;SDS011;3949;49.254;8.894;2023-09-18T03:37:17;5.53;;;4.63;;
7807;SDS011;3949;49.254;8.894;2023-09-18T03:39:43;5.47;;;4.10;;
7807;SDS011;3949;49.254;8.894;2023-09-18T03:42:09;4.73;;;4.23;;
7807;SDS011;3949;49.254;8.894;2023-09-18T03:44:35;4.80;;;4.40;;
7807;SDS011;3949;49.254;8.894;2023-09-18T03:47:01;6.37;;;4.43;;
7807;SDS011;3949;49.254;8.894;2023-09-18T03:49:29;4.93;;;4.50;;
7807;SDS011;3949;49.254;8.894;2023-09-18T03:51:55;4.80;;;4.30;;
7807;SDS011;3949;49.254;8.894;2023-09-18T03:54:21;5.03;;;4.60;;
7807;SDS011;3949;49.254;8.894;2023-09-18T03:56:47;4.83;;;4.43;;
7807;SDS011;3949;49.254;8.894;2023-09-18T03:59:13;4.77;;;4.37;;
7807;SDS011;3949;49.254;8.894;2023-09-18T04:01:39;5.43;;;4.83;;
7807;SDS011;3949;49.254;8.894;2023-09-18T04:04:05;5.40;;;4.90;;
7807;SDS011;3949;49.254;8.894;2023-09-18T04:06:41;5.37;;;4.47;;
7807;SDS011;3949;49.254;8.894;2023-09-18T04:09:08;5.93;;;4.40;;
7807;SDS011;3949;49.254;8.894;2023-09-18T04:11:34;7.67;;;3.73;;
7807;SDS011;3949;49.254;8.894;2023-09-18T04:14:01;6.77;;;3.60;;
7807;SDS011;3949;49.254;8.894;2023-09-18T04:16:28;10.00;;;3.83;;
7807;SDS011;3949;49.254;8.894;2023-09-18T04:18:56;8.07;;;3.47;;
7807;SDS011;3949;49.254;8.894;2023-09-18T04:21:22;8.37;;;3.70;;
7807;SDS011;3949;49.254;8.894;2023-09-18T04:23:48;10.47;;;3.77;;
7807;SDS011;3949;49.254;8.894;2023-09-18T04:26:20;8.17;;;3.80;;
7807;SDS011;3949;49.254;8.894;2023-09-18T04:28:46;8.83;;;3.63;;
7807;SDS011;3949;49.254;8.894;2023-09-18T04:31:12;8.97;;;3.07;;
7807;SDS011;3949;49.254;8.894;2023-09-18T04:33:38;8.43;;;3.90;;
7807;SDS011;3949;49.254;8.894;2023-09-18T04:36:05;6.33;;;3.37;;
7807;SDS011;3949;49.254;8.894;2023-09-18T04:38:31;11.03;;;3.80;;
7807;SDS011;3949;49.254;8.894;2023-09-18T04:40:57;8.17;;;3.40;;
7807;SDS011;3949;49.254;8.894;2023-09-18T04:43:23;9.50;;;4.03;;
7807;SDS011;3949;49.254;8.894;2023-09-18T04:45:50;9.87;;;3.77;;
7807;SDS011;3949;49.254;8.894;2023-09-18T04:48:16;5.57;;;3.53;;
7807;SDS011;3949;49.254;8.894;2023-09-18T04:50:42;8.87;;;3.47;;
7807;SDS011;3949;49.254;8.894;2023-09-18T04:53:08;8.37;;;3.80;;
7807;SDS011;3949;49.254;8.894;2023-09-18T04:55:34;8.53;;;3.63;;
7807;SDS011;3949;49.254;8.894;2023-09-18T04:58:00;9.60;;;4.53;;
7807;SDS011;3949;49.254;8.894;2023-09-18T05:00:26;8.67;;;4.20;;
7807;SDS011;3949;49.254;8.894;2023-09-18T05:02:54;8.17;;;4.07;;
7807;SDS011;3949;49.254;8.894;2023-09-18T05:05:20;10.17;;;4.37;;
7807;SDS011;3949;49.254;8.894;2023-09-18T05:07:46;9.53;;;3.90;;
7807;SDS011;3949;49.254;8.894;2023-09-18T05:10:12;8.37;;;4.07;;
7807;SDS011;3949;49.254;8.894;2023-09-18T05:12:38;9.53;;;4.57;;
7807;SDS011;3949;49.254;8.894;2023-09-18T05:15:05;6.37;;;3.80;;
7807;SDS011;3949;49.254;8.894;2023-09-18T05:17:42;8.30;;;4.17;;
7807;SDS011;3949;49.254;8.894;2023-09-18T05:20:08;10.37;;;4.37;;
7807;SDS011;3949;49.254;8.894;2023-09-18T05:22:37;7.90;;;3.97;;
7807;SDS011;3949;49.254;8.894;2023-09-18T05:25:03;7.43;;;4.33;;
7807;SDS011;3949;49.254;8.894;2023-09-18T05:27:30;7.40;;;4.40;;
7807;SDS011;3949;49.254;8.894;2023-09-18T05:29:56;8.27;;;3.97;;
7807;SDS011;3949;49.254;8.894;2023-09-18T05:32:22;11.80;;;4.20;;
7807;SDS011;3949;49.254;8.894;2023-09-18T05:34:48;8.90;;;4.33;;
7807;SDS011;3949;49.254;8.894;2023-09-18T05:37:14;6.87;;;3.80;;
7807;SDS011;3949;49.254;8.894;2023-09-18T05:39:40;6.93;;;3.67;;
7807;SDS011;3949;49.254;8.894;2023-09-18T05:42:06;6.83;;;3.60;;
7807;SDS011;3949;49.254;8.894;2023-09-18T05:44:32;9.03;;;4.07;;
7807;SDS011;3949;49.254;8.894;2023-09-18T05:46:58;7.70;;;4.13;;
7807;SDS011;3949;49.254;8.894;2023-09-18T05:49:24;10.83;;;4.77;;
7807;SDS011;3949;49.254;8.894;2023-09-18T05:51:52;8.87;;;4.30;;
7807;SDS011;3949;49.254;8.894;2023-09-18T05:54:18;10.23;;;4.20;;
7807;SDS011;3949;49.254;8.894;2023-09-18T05:56:44;7.13;;;4.47;;
7807;SDS011;3949;49.254;8.894;2023-09-18T05:59:10;9.90;;;4.17;;
7807;SDS011;3949;49.254;8.894;2023-09-18T06:01:36;7.40;;;4.10;;
7807;SDS011;3949;49.254;8.894;2023-09-18T06:04:02;6.83;;;3.93;;
7807;SDS011;3949;49.254;8.894;2023-09-18T06:06:28;10.50;;;4.03;;
7807;SDS011;3949;49.254;8.894;2023-09-18T06:08:54;8.83;;;4.40;;
7807;SDS011;3949;49.254;8.894;2023-09-18T06:11:20;8.17;;;4.23;;
7807;SDS011;3949;49.254;8.894;2023-09-18T06:13:46;8.10;;;4.77;;
7807;SDS011;3949;49.254;8.894;2023-09-18T06:16:12;9.43;;;4.53;;
7807;SDS011;3949;49.254;8.894;2023-09-18T06:18:38;6.33;;;4.30;;
7807;SDS011;3949;49.254;8.894;2023-09-18T06:21:04;6.63;;;3.97;;
7807;SDS011;3949;49.254;8.894;2023-09-18T06:23:30;8.23;;;5.00;;
7807;SDS011;3949;49.254;8.894;2023-09-18T06:25:57;10.60;;;4.97;;
7807;SDS011;3949;49.254;8.894;2023-09-18T06:28:24;8.07;;;4.30;;
7807;SDS011;3949;49.254;8.894;2023-09-18T06:30:50;7.37;;;4.40;;
7807;SDS011;3949;49.254;8.894;2023-09-18T06:33:18;9.00;;;4.20;;
7807;SDS011;3949;49.254;8.894;2023-09-18T06:35:44;8.27;;;4.77;;
7807;SDS011;3949;49.254;8.894;2023-09-18T06:38:10;8.50;;;4.53;;
7807;SDS011;3949;49.254;8.894;2023-09-18T06:40:37;11.17;;;4.73;;
7807;SDS011;3949;49.254;8.894;2023-09-18T06:43:04;9.67;;;4.47;;
7807;SDS011;3949;49.254;8.894;2023-09-18T06:45:30;9.60;;;4.87;;
7807;SDS011;3949;49.254;8.894;2023-09-18T06:47:58;10.07;;;4.87;;
7807;SDS011;3949;49.254;8.894;2023-09-18T06:50:25;10.83;;;4.70;;
7807;SDS011;3949;49.254;8.894;2023-09-18T06:52:51;9.13;;;4.37;;
7807;SDS011;3949;49.254;8.894;2023-09-18T06:55:17;10.20;;;5.20;;
7807;SDS011;3949;49.254;8.894;2023-09-18T06:57:43;10.30;;;4.10;;
7807;SDS011;3949;49.254;8.894;2023-09-18T07:00:09;14.53;;;4.43;;
7807;SDS011;3949;49.254;8.894;2023-09-18T07:02:35;9.23;;;4.80;;
7807;SDS011;3949;49.254;8.894;2023-09-18T07:05:01;11.60;;;4.00;;
7807;SDS011;3949;49.254;8.894;2023-09-18T07:07:27;6.63;;;3.77;;
7807;SDS011;3949;49.254;8.894;2023-09-18T07:09:53;5.77;;;3.40;;
7807;SDS011;3949;49.254;8.894;2023-09-18T07:12:19;7.17;;;3.67;;
7807;SDS011;3949;49.254;8.894;2023-09-18T07:14:46;11.47;;;4.07;;
7807;SDS011;3949;49.254;8.894;2023-09-18T07:17:12;5.87;;;3.70;;
7807;SDS011;3949;49.254;8.894;2023-09-18T07:19:38;7.00;;;4.17;;
7807;SDS011;3949;49.254;8.894;2023-09-18T07:22:04;10.17;;;4.60;;
7807;SDS011;3949;49.254;8.894;2023-09-18T07:24:30;7.63;;;4.33;;
7807;SDS011;3949;49.254;8.894;2023-09-18T07:26:56;10.63;;;4.93;;
7807;SDS011;3949;49.254;8.894;2023-09-18T07:29:23;6.67;;;4.10;;
7807;SDS011;3949;49.254;8.894;2023-09-18T07:31:50;7.13;;;3.70;;
7807;SDS011;3949;49.254;8.894;2023-09-18T07:34:16;9.73;;;4.20;;
7807;SDS011;3949;49.254;8.894;2023-09-18T07:36:43;9.67;;;4.27;;
7807;SDS011;3949;49.254;8.894;2023-09-18T07:39:09;10.90;;;3.90;;
7807;SDS011;3949;49.254;8.894;2023-09-18T07:41:36;5.93;;;3.43;;
7807;SDS011;3949;49.254;8.894;2023-09-18T07:44:02;6.57;;;3.20;;
7807;SDS011;3949;49.254;8.894;2023-09-18T07:46:28;5.33;;;2.83;;
7807;SDS011;3949;49.254;8.894;2023-09-18T07:48:54;10.40;;;3.67;;
7807;SDS011;3949;49.254;8.894;2023-09-18T07:51:20;4.20;;;2.90;;
7807;SDS011;3949;49.254;8.894;2023-09-18T07:53:46;6.10;;;3.33;;
7807;SDS011;3949;49.254;8.894;2023-09-18T07:56:13;6.47;;;3.00;;
7807;SDS011;3949;49.254;8.894;2023-09-18T07:58:39;6.60;;;3.10;;
7807;SDS011;3949;49.254;8.894;2023-09-18T08:01:05;6.73;;;3.43;;
7807;SDS011;3949;49.254;8.894;2023-09-18T08:03:34;5.70;;;2.60;;
7807;SDS011;3949;49.254;8.894;2023-09-18T08:06:00;6.57;;;2.73;;
7807;SDS011;3949;49.254;8.894;2023-09-18T08:08:26;4.87;;;2.70;;
7807;SDS011;3949;49.254;8.894;2023-09-18T08:10:52;6.23;;;3.77;;
7807;SDS011;3949;49.254;8.894;2023-09-18T08:13:18;4.00;;;2.70;;
7807;SDS011;3949;49.254;8.894;2023-09-18T08:15:45;6.53;;;2.97;;
7807;SDS011;3949;49.254;8.894;2023-09-18T08:18:11;8.33;;;3.63;;
7807;SDS011;3949;49.254;8.894;2023-09-18T08:20:43;6.87;;;2.77;;
7807;SDS011;3949;49.254;8.894;2023-09-18T08:23:09;4.60;;;2.30;;
7807;SDS011;3949;49.254;8.894;2023-09-18T08:25:35;5.00;;;2.60;;
7807;SDS011;3949;49.254;8.894;2023-09-18T08:28:02;5.70;;;3.20;;
7807;SDS011;3949;49.254;8.894;2023-09-18T08:30:29;6.13;;;2.90;;
7807;SDS011;3949;49.254;8.894;2023-09-18T08:32:55;8.80;;;3.83;;
7807;SDS011;3949;49.254;8.894;2023-09-18T08:35:21;5.13;;;2.73;;
7807;SDS011;3949;49.254;8.894;2023-09-18T08:37:48;7.03;;;2.63;;
7807;SDS011;3949;49.254;8.894;2023-09-18T08:40:14;7.97;;;3.07;;
7807;SDS011;3949;49.254;8.894;2023-09-18T08:42:40;6.07;;;2.87;;
7807;SDS011;3949;49.254;8.894;2023-09-18T08:45:08;5.20;;;2.40;;
7807;SDS011;3949;49.254;8.894;2023-09-18T08:47:36;4.33;;;2.30;;
7807;SDS011;3949;49.254;8.894;2023-09-18T08:50:03;4.13;;;2.73;;
7807;SDS011;3949;49.254;8.894;2023-09-18T08:52:29;3.40;;;2.20;;
7807;SDS011;3949;49.254;8.894;2023-09-18T08:54:55;2.93;;;1.90;;
7807;SDS011;3949;49.254;8.894;2023-09-18T08:57:22;2.33;;;1.60;;
7807;SDS011;3949;49.254;8.894;2023-09-18T08:59:48;1.90;;;1.70;;
7807;SDS011;3949;49.254;8.894;2023-09-18T09:02:15;3.03;;;1.50;;
7807;SDS011;3949;49.254;8.894;2023-09-18T09:04:41;2.67;;;1.60;;
7807;SDS011;3949;49.254;8.894;2023-09-18T09:07:07;2.90;;;1.70;;
7807;SDS011;3949;49.254;8.894;2023-09-18T09:09:33;4.10;;;2.20;;
7807;SDS011;3949;49.254;8.894;2023-09-18T09:11:59;4.00;;;1.83;;
7807;SDS011;3949;49.254;8.894;2023-09-18T09:14:25;2.40;;;1.70;;
7807;SDS011;3949;49.254;8.894;2023-09-18T09:16:55;2.90;;;1.50;;
7807;SDS011;3949;49.254;8.894;2023-09-18T09:21:55;3.93;;;1.70;;
7807;SDS011;3949;49.254;8.894;2023-09-18T09:24:42;5.30;;;1.97;;
7807;SDS011;3949;49.254;8.894;2023-09-18T09:27:09;3.73;;;1.50;;
7807;SDS011;3949;49.254;8.894;2023-09-18T09:29:35;2.40;;;1.80;;
7807;SDS011;3949;49.254;8.894;2023-09-18T09:32:14;4.63;;;2.00;;
7807;SDS011;3949;49.254;8.894;2023-09-18T09:34:42;4.63;;;2.07;;
7807;SDS011;3949;49.254;8.894;2023-09-18T09:37:08;4.40;;;2.10;;
7807;SDS011;3949;49.254;8.894;2023-09-18T09:39:45;3.30;;;1.90;;
7807;SDS011;3949;49.254;8.894;2023-09-18T09:42:13;5.27;;;2.07;;
7807;SDS011;3949;49.254;8.894;2023-09-18T09:44:40;4.13;;;2.00;;
7807;SDS011;3949;49.254;8.894;2023-09-18T09:47:06;3.47;;;1.77;;
7807;SDS011;3949;49.254;8.894;2023-09-18T09:49:42;4.67;;;1.87;;
7807;SDS011;3949;49.254;8.894;2023-09-18T09:52:17;4.60;;;1.80;;
7807;SDS011;3949;49.254;8.894;2023-09-18T09:54:47;2.67;;;1.40;;
7807;SDS011;3949;49.254;8.894;2023-09-18T09:57:13;4.30;;;1.90;;
7807;SDS011;3949;49.254;8.894;2023-09-18T09:59:39;2.13;;;1.80;;
7807;SDS011;3949;49.254;8.894;2023-09-18T10:02:09;2.83;;;1.40;;
7807;SDS011;3949;49.254;8.894;2023-09-18T10:04:39;3.87;;;1.70;;
7807;SDS011;3949;49.254;8.894;2023-09-18T10:07:06;3.17;;;1.60;;
7807;SDS011;3949;49.254;8.894;2023-09-18T10:09:34;3.33;;;1.80;;
7807;SDS011;3949;49.254;8.894;2023-09-18T10:12:00;2.03;;;1.70;;
7807;SDS011;3949;49.254;8.894;2023-09-18T10:14:31;1.97;;;1.80;;
7807;SDS011;3949;49.254;8.894;2023-09-18T10:16:59;2.33;;;1.50;;
7807;SDS011;3949;49.254;8.894;2023-09-18T10:19:27;3.13;;;1.90;;
7807;SDS011;3949;49.254;8.894;2023-09-18T10:24:34;3.77;;;1.40;;
7807;SDS011;3949;49.254;8.894;2023-09-18T10:27:04;2.37;;;1.80;;
7807;SDS011;3949;49.254;8.894;2023-09-18T10:29:32;1.73;;;1.60;;
7807;SDS011;3949;49.254;8.894;2023-09-18T10:31:59;2.73;;;1.20;;
7807;SDS011;3949;49.254;8.894;2023-09-18T10:34:25;2.53;;;1.50;;
7807;SDS011;3949;49.254;8.894;2023-09-18T10:36:51;4.20;;;1.67;;
7807;SDS011;3949;49.254;8.894;2023-09-18T10:39:18;1.87;;;1.33;;
7807;SDS011;3949;49.254;8.894;2023-09-18T10:41:51;1.90;;;1.40;;
7807;SDS011;3949;49.254;8.894;2023-09-18T10:44:17;2.37;;;1.27;;
7807;SDS011;3949;49.254;8.894;2023-09-18T10:46:47;3.27;;;1.70;;
7807;SDS011;3949;49.254;8.894;2023-09-18T10:49:14;4.10;;;1.73;;
7807;SDS011;3949;49.254;8.894;2023-09-18T10:51:40;1.97;;;1.57;;
7807;SDS011;3949;49.254;8.894;2023-09-18T10:54:10;1.57;;;1.10;;
7807;SDS011;3949;49.254;8.894;2023-09-18T10:56:37;1.93;;;1.40;;
7807;SDS011;3949;49.254;8.894;2023-09-18T10:59:05;2.23;;;1.30;;
7807;SDS011;3949;49.254;8.894;2023-09-18T11:01:32;2.43;;;1.30;;
7807;SDS011;3949;49.254;8.894;2023-09-18T11:04:00;3.83;;;1.60;;
7807;SDS011;3949;49.254;8.894;2023-09-18T11:06:26;2.97;;;1.73;;
7807;SDS011;3949;49.254;8.894;2023-09-18T11:09:03;4.50;;;1.70;;
7807;SDS011;3949;49.254;8.894;2023-09-18T11:11:30;2.83;;;1.57;;
7807;SDS011;3949;49.254;8.894;2023-09-18T11:13:58;1.97;;;1.30;;
7807;SDS011;3949;49.254;8.894;2023-09-18T11:21:27;3.67;;;1.40;;
7807;SDS011;3949;49.254;8.894;2023-09-18T11:24:03;1.40;;;1.23;;
7807;SDS011;3949;49.254;8.894;2023-09-18T11:26:29;3.10;;;1.40;;
7807;SDS011;3949;49.254;8.894;2023-09-18T11:28:58;3.67;;;1.60;;
7807;SDS011;3949;49.254;8.894;2023-09-18T11:31:41;3.77;;;1.80;;
7807;SDS011;3949;49.254;8.894;2023-09-18T11:34:41;7.77;;;1.97;;
7807;SDS011;3949;49.254;8.894;2023-09-18T11:37:00;2.33;;;1.63;;
7807;SDS011;3949;49.254;8.894;2023-09-18T11:39:35;3.10;;;1.77;;
7807;SDS011;3949;49.254;8.894;2023-09-18T11:42:17;2.67;;;1.43;;
7807;SDS011;3949;49.254;8.894;2023-09-18T11:44:44;1.83;;;1.50;;
7807;SDS011;3949;49.254;8.894;2023-09-18T11:47:16;5.63;;;1.73;;
7807;SDS011;3949;49.254;8.894;2023-09-18T11:52:19;3.27;;;1.50;;
7807;SDS011;3949;49.254;8.894;2023-09-18T11:54:45;3.50;;;1.80;;
7807;SDS011;3949;49.254;8.894;2023-09-18T11:57:12;3.33;;;1.53;;
7807;SDS011;3949;49.254;8.894;2023-09-18T11:59:39;2.40;;;1.53;;
7807;SDS011;3949;49.254;8.894;2023-09-18T12:02:06;1.60;;;1.50;;
7807;SDS011;3949;49.254;8.894;2023-09-18T12:04:33;4.77;;;1.80;;
7807;SDS011;3949;49.254;8.894;2023-09-18T12:06:59;3.93;;;1.50;;
7807;SDS011;3949;49.254;8.894;2023-09-18T12:09:31;3.20;;;1.50;;
7807;SDS011;3949;49.254;8.894;2023-09-18T12:12:00;4.20;;;1.67;;
7807;SDS011;3949;49.254;8.894;2023-09-18T12:14:30;2.33;;;1.40;;
7807;SDS011;3949;49.254;8.894;2023-09-18T12:16:57;2.47;;;1.50;;
7807;SDS011;3949;49.254;8.894;2023-09-18T12:19:23;1.80;;;1.23;;
7807;SDS011;3949;49.254;8.894;2023-09-18T12:21:50;2.10;;;1.13;;
7807;SDS011;3949;49.254;8.894;2023-09-18T12:24:26;2.17;;;1.10;;
7807;SDS011;3949;49.254;8.894;2023-09-18T12:26:52;3.33;;;1.30;;
7807;SDS011;3949;49.254;8.894;2023-09-18T12:29:19;1.40;;;1.17;;
7807;SDS011;3949;49.254;8.894;2023-09-18T12:31:45;3.23;;;1.17;;
7807;SDS011;3949;49.254;8.894;2023-09-18T12:34:17;2.70;;;1.00;;
7807;SDS011;3949;49.254;8.894;2023-09-18T12:36:46;1.20;;;1.10;;
7807;SDS011;3949;49.254;8.894;2023-09-18T12:39:12;2.53;;;1.30;;
7807;SDS011;3949;49.254;8.894;2023-09-18T12:41:45;1.30;;;1.07;;
7807;SDS011;3949;49.254;8.894;2023-09-18T12:44:11;1.97;;;1.17;;
7807;SDS011;3949;49.254;8.894;2023-09-18T12:46:39;2.43;;;1.30;;
7807;SDS011;3949;49.254;8.894;2023-09-18T12:49:21;2.17;;;1.40;;
7807;SDS011;3949;49.254;8.894;2023-09-18T12:52:00;2.20;;;1.30;;
7807;SDS011;3949;49.254;8.894;2023-09-18T12:54:42;1.93;;;1.40;;
7807;SDS011;3949;49.254;8.894;2023-09-18T12:57:09;1.20;;;1.10;;
7807;SDS011;3949;49.254;8.894;2023-09-18T12:59:36;2.27;;;1.80;;
7807;SDS011;3949;49.254;8.894;2023-09-18T13:02:03;2.40;;;1.80;;
7807;SDS011;3949;49.254;8.894;2023-09-18T13:04:33;1.90;;;1.17;;
7807;SDS011;3949;49.254;8.894;2023-09-18T13:07:04;2.50;;;1.03;;
7807;SDS011;3949;49.254;8.894;2023-09-18T13:09:31;3.10;;;1.27;;
7807;SDS011;3949;49.254;8.894;2023-09-18T13:11:57;2.13;;;1.30;;
7807;SDS011;3949;49.254;8.894;2023-09-18T13:14:26;2.07;;;1.00;;
7807;SDS011;3949;49.254;8.894;2023-09-18T13:16:52;1.47;;;1.07;;
7807;SDS011;3949;49.254;8.894;2023-09-18T13:19:19;0.90;;;0.70;;
7807;SDS011;3949;49.254;8.894;2023-09-18T13:21:46;2.67;;;1.20;;
7807;SDS011;3949;49.254;8.894;2023-09-18T13:24:25;2.40;;;1.10;;
7807;SDS011;3949;49.254;8.894;2023-09-18T13:26:52;2.43;;;1.23;;
7807;SDS011;3949;49.254;8.894;2023-09-18T13:29:18;1.37;;;1.07;;
7807;SDS011;3949;49.254;8.894;2023-09-18T13:31:44;1.37;;;1.00;;
7807;SDS011;3949;49.254;8.894;2023-09-18T13:34:10;1.33;;;1.23;;
7807;SDS011;3949;49.254;8.894;2023-09-18T13:36:36;1.70;;;1.30;;
7807;SDS011;3949;49.254;8.894;2023-09-18T13:39:02;1.20;;;1.10;;
7807;SDS011;3949;49.254;8.894;2023-09-18T13:41:29;1.73;;;1.10;;
7807;SDS011;3949;49.254;8.894;2023-09-18T13:43:56;3.03;;;1.07;;
7807;SDS011;3949;49.254;8.894;2023-09-18T13:46:22;1.57;;;1.00;;
7807;SDS011;3949;49.254;8.894;2023-09-18T13:48:48;1.60;;;0.90;;
7807;SDS011;3949;49.254;8.894;2023-09-18T13:51:16;1.37;;;1.07;;
7807;SDS011;3949;49.254;8.894;2023-09-18T13:53:41;1.90;;;1.00;;
7807;SDS011;3949;49.254;8.894;2023-09-18T13:56:08;0.80;;;0.77;;
7807;SDS011;3949;49.254;8.894;2023-09-18T13:58:34;1.60;;;1.33;;
7807;SDS011;3949;49.254;8.894;2023-09-18T14:01:06;1.57;;;1.00;;
7807;SDS011;3949;49.254;8.894;2023-09-18T14:03:32;1.73;;;0.90;;
7807;SDS011;3949;49.254;8.894;2023-09-18T14:05:59;2.63;;;1.20;;
7807;SDS011;3949;49.254;8.894;2023-09-18T14:08:25;1.80;;;1.20;;
7807;SDS011;3949;49.254;8.894;2023-09-18T14:10:51;2.87;;;1.00;;
7807;SDS011;3949;49.254;8.894;2023-09-18T14:13:17;2.60;;;1.10;;
7807;SDS011;3949;49.254;8.894;2023-09-18T14:15:43;1.27;;;1.17;;
7807;SDS011;3949;49.254;8.894;2023-09-18T14:18:09;2.13;;;1.30;;
7807;SDS011;3949;49.254;8.894;2023-09-18T14:20:36;2.47;;;1.30;;
7807;SDS011;3949;49.254;8.894;2023-09-18T14:23:02;2.13;;;1.40;;
7807;SDS011;3949;49.254;8.894;2023-09-18T14:25:28;1.53;;;1.10;;
7807;SDS011;3949;49.254;8.894;2023-09-18T14:27:55;1.47;;;1.17;;
7807;SDS011;3949;49.254;8.894;2023-09-18T14:30:21;1.07;;;0.90;;
7807;SDS011;3949;49.254;8.894;2023-09-18T14:32:51;2.40;;;1.10;;
7807;SDS011;3949;49.254;8.894;2023-09-18T14:35:17;1.23;;;1.13;;
7807;SDS011;3949;49.254;8.894;2023-09-18T14:37:43;1.20;;;1.00;;
7807;SDS011;3949;49.254;8.894;2023-09-18T14:40:09;2.40;;;1.40;;
7807;SDS011;3949;49.254;8.894;2023-09-18T14:42:36;1.20;;;1.10;;
7807;SDS011;3949;49.254;8.894;2023-09-18T14:45:02;1.60;;;0.97;;
7807;SDS011;3949;49.254;8.894;2023-09-18T14:47:29;2.20;;;1.00;;
7807;SDS011;3949;49.254;8.894;2023-09-18T14:49:55;1.70;;;1.10;;
7807;SDS011;3949;49.254;8.894;2023-09-18T14:52:23;1.50;;;1.17;;
7807;SDS011;3949;49.254;8.894;2023-09-18T14:54:50;2.10;;;1.20;;
7807;SDS011;3949;49.254;8.894;2023-09-18T14:57:17;2.03;;;1.03;;
7807;SDS011;3949;49.254;8.894;2023-09-18T14:59:43;1.20;;;1.00;;
7807;SDS011;3949;49.254;8.894;2023-09-18T15:02:12;1.20;;;1.03;;
7807;SDS011;3949;49.254;8.894;2023-09-18T15:04:39;2.03;;;1.17;;
7807;SDS011;3949;49.254;8.894;2023-09-18T15:07:05;3.30;;;1.20;;
7807;SDS011;3949;49.254;8.894;2023-09-18T15:09:31;1.97;;;1.40;;
7807;SDS011;3949;49.254;8.894;2023-09-18T15:11:57;1.97;;;1.57;;
7807;SDS011;3949;49.254;8.894;2023-09-18T15:14:23;1.70;;;1.23;;
7807;SDS011;3949;49.254;8.894;2023-09-18T15:16:49;2.00;;;1.20;;
7807;SDS011;3949;49.254;8.894;2023-09-18T15:19:15;1.97;;;1.27;;
7807;SDS011;3949;49.254;8.894;2023-09-18T15:21:42;1.40;;;1.20;;
7807;SDS011;3949;49.254;8.894;2023-09-18T15:24:09;1.77;;;1.30;;
7807;SDS011;3949;49.254;8.894;2023-09-18T15:26:35;2.37;;;1.30;;
7807;SDS011;3949;49.254;8.894;2023-09-18T15:29:01;1.73;;;1.23;;